Terminal Aerodrome Forecast
Issued by NWS

Home | Current Version | Previous Version | Text Only | Print | Product List | Glossary On
Versions: 1 2 3 4 5 6 7 8 9 10 11 12 13 14 15 16
000
FTUS42 KTAE 262321
TAFVLD
TAF
KVLD 262321Z 2700/2724 19005KT P6SM SCT070
     FM271000 00000KT 3SM BR SCT005
     FM271300 17005KT P6SM SCT025=

USA.gov is the U.S. government's official web portal to all federal, state and local government web resources and services.